createdAt,value
2022-11-02T00:01:42.721Z,17.2
2022-11-02T00:06:34.775Z,17.2
2022-11-02T00:11:41.303Z,17.2
2022-11-02T00:16:47.112Z,17.2
2022-11-02T00:22:24.870Z,17.2
2022-11-02T00:27:46.706Z,17.2
2022-11-02T00:32:55.049Z,17.2
2022-11-02T00:38:36.693Z,17.2
2022-11-02T00:44:13.642Z,17.1
2022-11-02T00:49:35.612Z,17.2
2022-11-02T00:55:18.106Z,17.1
2022-11-02T01:00:55.017Z,17.1
2022-11-02T01:06:33.326Z,17.1
2022-11-02T01:12:12.996Z,17.1
2022-11-02T01:17:19.293Z,17.1
2022-11-02T01:22:56.472Z,17.1
2022-11-02T01:28:18.604Z,17.1
2022-11-02T01:33:40.656Z,17.1
2022-11-02T01:39:02.261Z,17.1
2022-11-02T01:44:23.870Z,17.1
2022-11-02T01:49:46.557Z,17.1
2022-11-02T01:55:08.038Z,17.1
2022-11-02T02:04:34.244Z,17.1
2022-11-02T02:09:54.612Z,17.1
2022-11-02T02:20:27.627Z,17.1
2022-11-02T02:57:28.763Z,16.9
2022-11-02T03:08:14.279Z,16.9
2022-11-02T03:13:34.937Z,16.9
2022-11-02T03:18:58.047Z,16.9
2022-11-02T03:24:19.325Z,16.9
2022-11-02T03:29:41.318Z,16.9
2022-11-02T03:34:47.736Z,16.9
2022-11-02T03:39:37.865Z,16.9
2022-11-02T03:44:59.319Z,16.9
2022-11-02T03:50:06.005Z,16.9
2022-11-02T03:55:27.289Z,16.9
2022-11-02T04:00:48.407Z,16.9
2022-11-02T04:05:56.319Z,16.9
2022-11-02T04:11:35.360Z,16.9
2022-11-02T04:16:44.367Z,16.8
2022-11-02T04:21:50.755Z,16.8
2022-11-02T04:27:27.374Z,16.8
2022-11-02T04:33:04.351Z,16.8
2022-11-02T04:38:42.487Z,16.8
2022-11-02T04:44:20.780Z,16.8
2022-11-02T04:49:44.697Z,16.8
2022-11-02T04:55:10.373Z,16.8
2022-11-02T05:00:16.766Z,16.8
2022-11-02T05:05:43.885Z,16.8
2022-11-02T05:11:27.336Z,16.8
2022-11-02T05:17:04.366Z,16.8
2022-11-02T05:22:46.876Z,16.8
2022-11-02T05:28:13.965Z,16.8
2022-11-02T05:33:52.573Z,16.8
2022-11-02T05:39:29.649Z,16.8
2022-11-02T05:45:10.510Z,16.8
2022-11-02T05:50:32.074Z,16.8
2022-11-02T05:55:54.913Z,16.8
2022-11-02T06:01:17.428Z,16.8
2022-11-02T06:06:27.304Z,16.8
2022-11-02T06:11:38.712Z,16.8
2022-11-02T06:17:01.416Z,16.8
2022-11-02T06:22:23.760Z,16.8
2022-11-02T06:27:45.956Z,16.8
2022-11-02T06:33:24.061Z,16.7
2022-11-02T06:38:46.486Z,16.8
2022-11-02T06:44:47.455Z,16.7
2022-11-02T06:50:31.886Z,16.8
2022-11-02T06:55:39.413Z,16.8
2022-11-02T07:01:02.230Z,16.8
2022-11-02T07:06:14.061Z,16.8
2022-11-02T07:11:36.439Z,16.8
2022-11-02T07:17:14.248Z,16.8
2022-11-02T07:22:38.350Z,16.8
2022-11-02T07:28:15.986Z,16.8
2022-11-02T07:33:39.024Z,16.8
2022-11-02T07:39:21.673Z,16.8
2022-11-02T07:45:04.561Z,16.8
2022-11-02T07:50:46.024Z,16.8
2022-11-02T07:56:10.113Z,16.8
2022-11-02T08:01:50.723Z,16.8
2022-11-02T08:06:59.905Z,16.8
2022-11-02T08:12:22.493Z,16.8
2022-11-02T08:17:44.999Z,16.8
2022-11-02T08:23:07.899Z,16.8
2022-11-02T08:28:36.001Z,16.8
2022-11-02T08:33:32.021Z,16.8
2022-11-02T08:38:55.390Z,16.8
2022-11-02T08:44:24.432Z,16.8
2022-11-02T08:50:27.716Z,16.8
2022-11-02T08:55:50.408Z,16.8
2022-11-02T09:01:12.385Z,16.8
2022-11-02T09:06:35.164Z,16.8
2022-11-02T09:12:16.350Z,16.8
2022-11-02T09:17:39.839Z,16.8
2022-11-02T09:23:02.547Z,16.8
2022-11-02T09:28:30.427Z,16.8
2022-11-02T09:34:13.226Z,16.8
2022-11-02T09:39:50.706Z,16.8
2022-11-02T09:45:14.948Z,16.8
2022-11-02T09:51:48.108Z,16.8
2022-11-02T09:57:10.464Z,16.8
2022-11-02T10:02:33.467Z,16.9
2022-11-02T10:07:55.852Z,16.9
2022-11-02T10:13:07.480Z,16.9
2022-11-02T10:18:30.150Z,16.9
2022-11-02T10:24:07.512Z,16.9
2022-11-02T10:29:45.669Z,16.9
2022-11-02T10:41:51.172Z,16.9
2022-11-02T10:47:13.587Z,16.9
2022-11-02T10:52:42.337Z,16.9
2022-11-02T10:58:29.332Z,16.9
2022-11-02T11:04:08.791Z,16.9
2022-11-02T11:09:31.586Z,16.9
2022-11-02T11:24:28.833Z,16.9
2022-11-02T12:06:55.795Z,17.1
2022-11-02T12:12:27.812Z,17.1
2022-11-02T12:17:54.393Z,17.1
2022-11-02T12:23:17.011Z,17.1
2022-11-02T12:28:24.028Z,17.1
2022-11-02T12:33:45.758Z,17.1
2022-11-02T12:40:14.700Z,17.1
2022-11-02T12:45:38.033Z,17.1
2022-11-02T12:51:01.672Z,17.1
2022-11-02T12:56:29.106Z,17.1
2022-11-02T13:01:21.165Z,17.1
2022-11-02T13:07:03.227Z,17.1
2022-11-02T13:12:12.959Z,17.2
2022-11-02T13:17:42.204Z,17.2
2022-11-02T13:23:08.920Z,17.2
2022-11-02T13:28:43.436Z,17.2
2022-11-02T13:33:59.977Z,17.2
2022-11-02T13:39:07.000Z,17.2
2022-11-02T13:44:29.844Z,17.2
2022-11-02T13:49:51.668Z,17.2
2022-11-02T13:55:03.976Z,17.3
2022-11-02T14:00:50.107Z,17.3
2022-11-02T14:06:32.607Z,17.3
2022-11-02T14:12:10.846Z,17.3
2022-11-02T14:17:49.081Z,17.3
2022-11-02T14:23:31.258Z,17.3
2022-11-02T14:29:14.327Z,17.3
2022-11-02T14:34:51.365Z,17.3
2022-11-02T14:40:28.054Z,17.3
2022-11-02T14:46:09.644Z,17.3
2022-11-02T14:51:47.730Z,17.3
2022-11-02T14:56:55.642Z,17.3
2022-11-02T15:02:22.191Z,17.3
2022-11-02T15:08:04.300Z,17.3
2022-11-02T15:13:46.797Z,17.3
2022-11-02T15:19:24.079Z,17.3
2022-11-02T15:25:12.878Z,17.3
2022-11-02T15:30:44.001Z,17.3
2022-11-02T15:36:37.488Z,17.3
2022-11-02T15:42:49.514Z,17.3
2022-11-02T15:48:41.143Z,17.3
2022-11-02T15:54:31.027Z,17.4
2022-11-02T15:59:53.192Z,17.3
2022-11-02T16:05:35.438Z,17.3
2022-11-02T16:11:26.962Z,17.3
2022-11-02T16:17:28.570Z,17.4
2022-11-02T16:23:08.383Z,17.4
2022-11-02T16:28:30.587Z,17.4
2022-11-02T16:34:16.834Z,17.4
2022-11-02T16:39:57.031Z,17.4
2022-11-02T16:45:10.665Z,17.4
2022-11-02T16:50:48.649Z,17.4
2022-11-02T16:56:29.325Z,17.4
2022-11-02T17:02:10.857Z,17.4
2022-11-02T17:07:37.289Z,17.4
2022-11-02T17:13:20.426Z,17.4
2022-11-02T17:18:59.620Z,17.4
2022-11-02T17:24:37.570Z,17.4
2022-11-02T17:29:44.529Z,17.4
2022-11-02T17:35:26.980Z,17.4
2022-11-02T17:41:05.175Z,17.4
2022-11-02T17:45:55.795Z,17.4
2022-11-02T17:51:19.420Z,17.4
2022-11-02T17:56:41.782Z,17.4
2022-11-02T18:01:48.715Z,17.4
2022-11-02T18:07:31.246Z,17.4
2022-11-02T18:13:09.722Z,17.4
2022-11-02T18:18:47.065Z,17.4
2022-11-02T18:24:23.833Z,17.4
2022-11-02T18:29:55.170Z,17.4
2022-11-02T18:35:32.786Z,17.4
2022-11-02T18:41:11.303Z,17.4
2022-11-02T18:46:37.434Z,17.4
2022-11-02T18:52:17.102Z,17.4
2022-11-02T18:57:45.399Z,17.4
2022-11-02T19:03:25.925Z,17.4
2022-11-02T19:09:09.947Z,17.4
2022-11-02T19:14:36.875Z,17.5
2022-11-02T19:19:58.760Z,17.5
2022-11-02T19:25:41.418Z,17.4
2022-11-02T19:31:20.183Z,17.4
2022-11-02T19:36:58.688Z,17.4
2022-11-02T19:42:39.376Z,17.5
2022-11-02T19:48:19.516Z,17.5
2022-11-02T19:54:00.247Z,17.5
2022-11-02T19:59:37.906Z,17.5
2022-11-02T20:05:00.589Z,17.5
2022-11-02T20:10:38.347Z,17.5
2022-11-02T20:16:00.704Z,17.5
2022-11-02T20:22:20.405Z,17.5
2022-11-02T20:27:58.437Z,17.5
2022-11-02T20:33:09.522Z,17.5
2022-11-02T20:38:50.208Z,17.5
2022-11-02T20:44:32.431Z,17.5
2022-11-02T20:51:18.132Z,17.5
2022-11-02T20:56:40.431Z,17.5
2022-11-02T21:02:19.444Z,17.5
2022-11-02T21:07:58.069Z,17.5
2022-11-02T21:13:38.847Z,17.5
2022-11-02T21:19:16.939Z,17.5
2022-11-02T21:25:07.220Z,17.5
2022-11-02T21:30:44.309Z,17.5
2022-11-02T21:36:23.277Z,17.5
2022-11-02T21:41:45.629Z,17.5
2022-11-02T21:47:23.802Z,17.5
2022-11-02T21:53:01.939Z,17.5
2022-11-02T21:58:42.961Z,17.5
2022-11-02T22:04:24.647Z,17.5
2022-11-02T22:09:52.106Z,17.5
2022-11-02T22:15:28.849Z,17.5
2022-11-02T22:21:35.444Z,17.5
2022-11-02T22:27:14.753Z,17.5
2022-11-02T22:32:52.108Z,17.5
2022-11-02T22:38:14.125Z,17.5
2022-11-02T22:43:52.042Z,17.5
2022-11-02T22:49:29.707Z,17.5
2022-11-02T22:54:55.995Z,17.5
2022-11-02T23:00:18.442Z,17.5
2022-11-02T23:05:41.197Z,17.5
2022-11-02T23:11:18.770Z,17.5
2022-11-02T23:16:40.884Z,17.5
2022-11-02T23:22:05.791Z,17.5
2022-11-02T23:27:28.252Z,17.5
2022-11-02T23:33:05.932Z,17.5
2022-11-02T23:38:12.596Z,17.5
2022-11-02T23:43:49.978Z,17.4
2022-11-02T23:49:12.206Z,17.5
2022-11-02T23:54:48.940Z,17.5
